Terminal Aerodrome Forecast
Issued by NWS

Home | Current Version | Previous Version | Text Only | Print | Product List | Glossary On
Versions: 1 2 3 4 5 6 7 8 9 10 11 12 13 14 15 16
000
FTUS46 KSEW 240500
TAFBFI
TAF
KBFI 240523Z 2406/2506 00000KT P6SM OVC024
     FM240700 15004KT P6SM OVC018
     FM242300 20005KT P6SM SCT028 BKN045=

USA.gov is the U.S. government's official web portal to all federal, state and local government web resources and services.